createdAt,value
2023-03-13T00:05:23.321Z,23.9
2023-03-13T00:15:23.803Z,25.3
2023-03-13T00:25:24.582Z,23.8
2023-03-13T00:35:24.064Z,25.4
2023-03-13T00:45:24.299Z,24.3
2023-03-13T00:55:24.803Z,24.3
2023-03-13T01:05:24.643Z,23.8
2023-03-13T01:15:24.991Z,25.3
2023-03-13T01:25:24.586Z,23.9
2023-03-13T01:35:25.093Z,24
2023-03-13T01:45:25.433Z,24.1
2023-03-13T01:55:26.867Z,23.8
2023-03-13T02:05:27.531Z,23.8
2023-03-13T02:15:28.227Z,23.6
2023-03-13T02:25:28.109Z,23.8
2023-03-13T02:35:28.364Z,23.8
2023-03-13T02:45:29.357Z,23.8
2023-03-13T02:55:29.887Z,23.7
2023-03-13T03:05:07.449Z,23.8
2023-03-13T03:15:08.361Z,23.9
2023-03-13T03:25:09.486Z,25.9
2023-03-13T03:35:09.775Z,23.6
2023-03-13T03:45:10.008Z,23.3
2023-03-13T03:55:10.376Z,23.4
2023-03-13T04:05:11.554Z,23.6
2023-03-13T04:15:13.768Z,23.3
2023-03-13T04:25:14.440Z,23.4
2023-03-13T04:35:16.270Z,23.6
2023-03-13T04:45:18.226Z,23.3
2023-03-13T04:55:20.054Z,26.3
2023-03-13T05:05:18.945Z,23.6
2023-03-13T05:15:19.224Z,23.7
2023-03-13T05:25:20.586Z,23.6
2023-03-13T05:35:21.302Z,23.9
2023-03-13T05:45:32.343Z,35.6
2023-03-13T05:55:49.839Z,37.4
2023-03-13T06:06:06.293Z,39.4
2023-03-13T06:16:23.569Z,39.3
2023-03-13T06:26:41.252Z,38.2
2023-03-13T06:36:58.750Z,38.9
2023-03-13T06:47:16.213Z,37.5
2023-03-13T06:57:33.731Z,40.4
2023-03-13T07:07:51.147Z,36.7
2023-03-13T07:18:09.630Z,39.3
2023-03-13T07:28:26.650Z,36.8
2023-03-13T07:38:44.662Z,36.4
2023-03-13T07:49:02.724Z,35.4
2023-03-13T07:59:19.004Z,25.5
2023-03-13T08:09:35.357Z,36.5
2023-03-13T08:19:51.637Z,37.6
2023-03-13T08:30:07.652Z,37.8
2023-03-13T08:40:26.483Z,37.3
2023-03-13T08:50:48.089Z,37.4
2023-03-13T09:05:18.951Z,36.4
2023-03-13T09:15:40.012Z,37.6
2023-03-13T09:26:00.573Z,37.2
2023-03-13T09:36:22.514Z,36.6
2023-03-13T09:46:42.288Z,38.4
2023-03-13T09:57:03.275Z,37.9
2023-03-13T10:07:25.116Z,38
2023-03-13T10:17:47.993Z,37.8
2023-03-13T10:28:09.334Z,37.3
2023-03-13T10:38:28.060Z,35.1
2023-03-13T10:48:50.282Z,38.6
2023-03-13T10:59:11.604Z,37.7
2023-03-13T11:09:31.137Z,38.9
2023-03-13T11:19:52.491Z,38.7
2023-03-13T11:30:09.797Z,38.8
2023-03-13T11:40:28.771Z,38.7
2023-03-13T11:50:46.363Z,33.6
2023-03-13T12:01:05.031Z,35.6
2023-03-13T12:11:21.257Z,35.1
2023-03-13T12:21:34.934Z,33.3
2023-03-13T12:31:47.429Z,31.6
2023-03-13T12:41:54.382Z,30.1
2023-03-13T12:51:59.286Z,28.9
2023-03-13T13:02:04.146Z,28.2
2023-03-13T13:12:07.814Z,27.4
2023-03-13T13:22:11.231Z,27.6
2023-03-13T13:32:14.663Z,27.3
2023-03-13T13:42:17.886Z,27.8
2023-03-13T13:52:20.967Z,27.3
2023-03-13T14:02:24.157Z,27.2
2023-03-13T14:12:27.391Z,27.6
2023-03-13T14:22:30.507Z,27.4
2023-03-13T14:32:33.619Z,27.3
2023-03-13T14:42:36.556Z,26.8
2023-03-13T14:52:39.988Z,26.8
2023-03-13T15:05:13.093Z,27
2023-03-13T15:15:14.088Z,26.6
2023-03-13T15:25:16.798Z,26.8
2023-03-13T15:35:19.612Z,27.2
2023-03-13T15:45:21.776Z,27
2023-03-13T15:55:23.149Z,22.9
2023-03-13T16:05:25.032Z,24.3
2023-03-13T16:15:24.953Z,23.1
2023-03-13T16:25:25.514Z,24
2023-03-13T16:35:26.257Z,24.5
2023-03-13T16:45:27.156Z,25.8
2023-03-13T16:55:28.905Z,26.5
2023-03-13T17:05:28.689Z,25.9
2023-03-13T17:15:28.525Z,24.4
2023-03-13T17:25:28.779Z,24.1
2023-03-13T17:35:28.531Z,24.1
2023-03-13T17:45:29.755Z,24.3
2023-03-13T17:55:29.318Z,24.3
2023-03-13T18:05:29.473Z,24.6
2023-03-13T18:15:29.917Z,23.9
2023-03-13T18:25:29.977Z,24.1
2023-03-13T18:35:29.705Z,24.3
2023-03-13T18:45:30.082Z,25.7
2023-03-13T18:55:30.013Z,24.3
2023-03-13T19:05:30.035Z,24.3
2023-03-13T19:15:29.665Z,24.1
2023-03-13T19:25:29.763Z,24.3
2023-03-13T19:35:30.126Z,24.3
2023-03-13T19:45:30.562Z,24.4
2023-03-13T19:55:30.595Z,24.4
2023-03-13T20:05:31.151Z,24.1
2023-03-13T20:15:31.924Z,26.1
2023-03-13T20:25:31.715Z,24.3
2023-03-13T20:35:32.161Z,24.3
2023-03-13T20:45:32.597Z,24.4
2023-03-13T20:55:33.524Z,24.5
2023-03-13T21:05:08.039Z,24.3
2023-03-13T21:15:08.537Z,24.5
2023-03-13T21:25:09.250Z,26.9
2023-03-13T21:35:09.856Z,23.9
2023-03-13T21:45:09.517Z,24
2023-03-13T21:55:09.949Z,24.1
2023-03-13T22:05:10.961Z,23.9
2023-03-13T22:15:12.144Z,24.4
2023-03-13T22:25:13.724Z,24
2023-03-13T22:35:15.114Z,24.6
2023-03-13T22:45:16.598Z,24.1
2023-03-13T22:55:18.479Z,23.9
2023-03-13T23:05:19.298Z,26
2023-03-13T23:15:19.521Z,23.9
2023-03-13T23:25:19.194Z,24.1
2023-03-13T23:35:19.246Z,23.9
2023-03-13T23:45:18.923Z,24.2
2023-03-13T23:55:20.152Z,25.4
